Time;durP1;ratioP1;P1;durP2;ratioP2;P2;SDS_P1;SDS_P2;PMS_P1;PMS_P2;Temp;Humidity;BMP_temperature;BMP_pressure;BME280_temperature;BME280_humidity;BME280_pressure;Samples;Min_cycle;Max_cycle;Signal;HPM_P1;HPM_P2
2021/06/16 00:02:14;;;;;;;7.22;3.40;;;14.60;93.70;;;;;;5033129;28;20061;-73
2021/06/16 00:04:39;;;;;;;9.43;3.58;;;14.60;93.80;;;;;;5033338;28;20045;-73
2021/06/16 00:07:05;;;;;;;11.45;4.10;;;14.60;93.70;;;;;;5033555;28;20044;-73
2021/06/16 00:09:31;;;;;;;7.97;3.85;;;14.50;93.80;;;;;;5031787;28;20048;-73
2021/06/16 00:11:56;;;;;;;5.57;3.67;;;14.40;93.80;;;;;;5033043;28;20088;-73
2021/06/16 00:14:22;;;;;;;9.18;4.00;;;14.50;93.90;;;;;;5033229;28;20040;-73
2021/06/16 00:16:48;;;;;;;11.70;4.00;;;14.30;93.90;;;;;;5033159;28;20048;-73
2021/06/16 00:19:14;;;;;;;9.80;3.63;;;14.40;94.00;;;;;;5032771;28;20041;-73
2021/06/16 00:21:40;;;;;;;11.63;4.13;;;14.40;93.90;;;;;;5034002;28;20034;-73
2021/06/16 00:24:07;;;;;;;9.85;3.97;;;14.30;93.80;;;;;;5036920;28;20048;-73
2021/06/16 00:26:33;;;;;;;8.07;4.20;;;14.40;94.00;;;;;;5036983;28;20490;-73
2021/06/16 00:28:59;;;;;;;7.70;3.72;;;14.30;93.90;;;;;;5036635;28;20116;-73
2021/06/16 00:31:24;;;;;;;14.18;5.18;;;14.30;93.90;;;;;;5036913;28;20116;-74
2021/06/16 00:33:50;;;;;;;9.75;4.22;;;14.30;93.90;;;;;;5037169;28;20466;-73
2021/06/16 00:36:16;;;;;;;9.35;3.45;;;14.30;94.00;;;;;;5037291;28;20083;-73
2021/06/16 00:38:42;;;;;;;8.25;3.90;;;14.30;93.80;;;;;;5036355;28;20454;-74
2021/06/16 00:41:08;;;;;;;5.93;3.92;;;14.20;93.80;;;;;;5035185;28;20037;-73
2021/06/16 00:43:34;;;;;;;8.25;3.60;;;14.20;93.80;;;;;;5037124;28;20393;-73
2021/06/16 00:46:00;;;;;;;12.73;4.40;;;14.10;93.90;;;;;;5036550;28;20034;-73
2021/06/16 00:48:25;;;;;;;9.35;3.45;;;14.10;94.00;;;;;;5036543;28;20052;-74
2021/06/16 00:50:51;;;;;;;9.50;3.83;;;14.10;93.90;;;;;;5035863;28;20106;-73
2021/06/16 00:53:17;;;;;;;4.88;3.50;;;14.10;93.90;;;;;;5036822;28;20037;-73
2021/06/16 00:55:43;;;;;;;9.10;3.95;;;14.10;93.90;;;;;;5036505;28;20064;-73
2021/06/16 00:58:12;;;;;;;11.55;4.25;;;14.10;93.80;;;;;;5035205;28;20037;-73
2021/06/16 01:00:44;;;;;;;11.88;3.97;;;14.10;93.80;;;;;;5036016;28;20557;-73
2021/06/16 01:03:23;;;;;;;11.80;4.72;;;14.10;93.70;;;;;;5036359;28;20486;-73
2021/06/16 01:05:59;;;;;;;10.45;4.00;;;14.10;93.60;;;;;;5036501;28;20044;-73
2021/06/16 01:08:31;;;;;;;11.75;4.25;;;14.00;93.80;;;;;;5036616;28;20489;-73
2021/06/16 01:11:01;;;;;;;11.15;3.97;;;13.90;93.90;;;;;;5037083;28;20042;-73
2021/06/16 01:13:53;;;;;;;9.35;3.90;;;14.00;93.80;;;;;;5036560;28;20359;-73
2021/06/16 01:16:29;;;;;;;11.90;4.20;;;14.00;93.90;;;;;;5036013;28;20042;-73
2021/06/16 01:18:59;;;;;;;9.10;3.63;;;14.00;94.00;;;;;;5036084;28;20034;-73
2021/06/16 01:21:26;;;;;;;10.38;4.40;;;13.90;94.00;;;;;;5035847;28;20037;-73
2021/06/16 01:24:07;;;;;;;9.85;4.50;;;14.00;93.90;;;;;;5035889;28;20041;-73
2021/06/16 01:26:49;;;;;;;10.93;5.43;;;13.90;94.00;;;;;;5036186;28;20087;-73
2021/06/16 01:29:30;;;;;;;10.10;4.40;;;13.90;94.00;;;;;;5035274;28;20076;-73
2021/06/16 01:31:58;;;;;;;8.90;4.13;;;13.90;94.10;;;;;;5033984;28;20470;-73
2021/06/16 01:34:25;;;;;;;8.05;4.07;;;13.90;94.10;;;;;;5034809;28;20041;-73
2021/06/16 01:36:53;;;;;;;11.00;4.63;;;13.80;94.10;;;;;;5034895;28;20049;-73
2021/06/16 01:39:22;;;;;;;9.95;4.60;;;13.90;94.00;;;;;;5033949;28;20478;-73
2021/06/16 01:41:52;;;;;;;9.15;4.65;;;13.70;94.10;;;;;;5035415;28;20041;-73
2021/06/16 01:44:19;;;;;;;9.70;4.68;;;13.80;94.20;;;;;;5035774;28;20099;-73
2021/06/16 01:46:50;;;;;;;14.00;5.43;;;13.80;94.20;;;;;;5035443;28;20046;-73
2021/06/16 01:49:17;;;;;;;11.00;4.95;;;13.70;94.10;;;;;;5035247;28;20043;-73
2021/06/16 01:51:43;;;;;;;10.02;4.88;;;13.70;94.30;;;;;;5035716;28;20462;-73
2021/06/16 01:54:09;;;;;;;8.52;4.57;;;13.70;94.30;;;;;;5035120;28;20064;-73
2021/06/16 01:56:37;;;;;;;7.13;4.55;;;13.70;94.30;;;;;;5035812;28;20037;-73
2021/06/16 01:59:05;;;;;;;9.32;4.38;;;13.60;94.30;;;;;;5034792;28;20374;-73
2021/06/16 02:01:31;;;;;;;7.15;4.85;;;13.60;94.40;;;;;;5035268;28;20379;-73
2021/06/16 02:03:57;;;;;;;7.57;5.05;;;13.60;94.40;;;;;;5035354;28;20059;-72
2021/06/16 02:06:39;;;;;;;12.48;4.95;;;13.60;94.20;;;;;;5035192;28;20045;-73
2021/06/16 02:09:08;;;;;;;11.13;4.32;;;13.60;94.20;;;;;;5035073;28;20526;-73
2021/06/16 02:11:41;;;;;;;9.00;4.78;;;13.60;94.30;;;;;;5034804;28;20037;-72
2021/06/16 02:14:11;;;;;;;11.35;5.20;;;13.60;94.40;;;;;;5035346;28;20040;-73
2021/06/16 02:16:54;;;;;;;9.50;4.85;;;13.50;94.40;;;;;;5035316;28;20044;-72
2021/06/16 02:19:24;;;;;;;10.52;5.13;;;13.50;94.60;;;;;;5034879;28;20091;-73
2021/06/16 02:21:54;;;;;;;10.85;6.25;;;13.50;94.60;;;;;;5034762;28;20038;-73
2021/06/16 02:24:20;;;;;;;7.90;4.70;;;13.40;94.70;;;;;;5034589;28;20044;-73
2021/06/16 02:26:46;;;;;;;13.48;5.70;;;13.40;94.70;;;;;;5033428;28;20053;-71
2021/06/16 02:29:12;;;;;;;10.32;4.90;;;13.40;94.80;;;;;;5033342;28;20421;-72
2021/06/16 02:31:40;;;;;;;11.23;5.13;;;13.40;94.80;;;;;;5034418;28;20083;-72
2021/06/16 02:34:06;;;;;;;8.50;4.85;;;13.40;94.80;;;;;;5034281;28;20051;-72
2021/06/16 02:36:37;;;;;;;7.78;4.68;;;13.40;94.90;;;;;;5034605;28;20056;-72
2021/06/16 02:39:14;;;;;;;9.77;5.15;;;13.40;94.90;;;;;;5034006;28;20037;-72
2021/06/16 02:41:42;;;;;;;13.73;5.65;;;13.40;94.90;;;;;;5033316;28;20037;-72
2021/06/16 02:44:09;;;;;;;11.80;5.47;;;13.40;94.90;;;;;;5034001;28;20044;-72
2021/06/16 02:46:36;;;;;;;11.15;5.05;;;13.40;95.00;;;;;;5034914;28;20047;-72
2021/06/16 02:49:07;;;;;;;8.40;5.22;;;13.40;95.10;;;;;;5033902;28;20041;-73
2021/06/16 02:51:36;;;;;;;11.85;5.72;;;13.30;95.20;;;;;;5034313;28;20034;-72
2021/06/16 02:54:09;;;;;;;13.82;5.93;;;13.20;95.20;;;;;;5034456;28;20125;-72
2021/06/16 02:56:40;;;;;;;9.95;5.60;;;13.30;95.20;;;;;;5034104;28;20092;-72
2021/06/16 02:59:07;;;;;;;8.73;5.80;;;13.20;95.30;;;;;;5034112;28;20067;-72
2021/06/16 03:01:35;;;;;;;11.85;5.55;;;13.20;95.30;;;;;;5034055;28;20045;-72
2021/06/16 03:04:01;;;;;;;14.25;6.60;;;13.10;95.40;;;;;;5033812;28;20044;-72
2021/06/16 03:06:28;;;;;;;13.23;5.93;;;13.10;95.50;;;;;;5034037;28;20098;-72
2021/06/16 03:08:57;;;;;;;13.43;6.15;;;13.10;95.60;;;;;;5032687;28;20042;-72
2021/06/16 03:11:24;;;;;;;12.07;6.57;;;13.10;95.60;;;;;;5034262;28;20455;-72
2021/06/16 03:13:51;;;;;;;11.85;6.00;;;13.10;95.70;;;;;;5033602;28;20037;-72
2021/06/16 03:16:20;;;;;;;13.70;6.47;;;13.10;95.80;;;;;;5033902;28;20052;-72
2021/06/16 03:18:47;;;;;;;14.60;5.88;;;13.00;95.80;;;;;;5033359;28;20128;-72
2021/06/16 03:21:15;;;;;;;10.68;6.88;;;13.00;95.80;;;;;;5034128;28;20042;-72
2021/06/16 03:23:42;;;;;;;9.75;6.30;;;13.10;95.80;;;;;;5033681;28;20033;-72
2021/06/16 03:26:09;;;;;;;15.75;7.25;;;13.10;95.80;;;;;;5034000;28;20393;-72
2021/06/16 03:28:36;;;;;;;12.27;6.85;;;13.00;96.00;;;;;;5033586;28;20147;-73
2021/06/16 03:31:02;;;;;;;14.40;6.82;;;13.00;96.00;;;;;;5033230;28;20038;-72
2021/06/16 03:33:28;;;;;;;10.93;6.47;;;13.00;96.00;;;;;;5033930;28;20064;-72
2021/06/16 03:35:56;;;;;;;11.82;6.18;;;13.00;96.10;;;;;;5033891;28;20045;-72
2021/06/16 03:38:23;;;;;;;11.30;6.93;;;13.00;96.00;;;;;;5033341;28;20087;-72
2021/06/16 03:40:50;;;;;;;11.68;6.43;;;13.00;96.10;;;;;;5033715;28;20042;-72
2021/06/16 03:43:17;;;;;;;10.98;6.50;;;13.00;96.20;;;;;;5033552;28;20033;-72
2021/06/16 03:45:45;;;;;;;14.63;7.30;;;12.90;96.20;;;;;;5033676;28;20042;-72
2021/06/16 03:48:16;;;;;;;11.98;7.03;;;13.00;96.10;;;;;;5032447;28;20437;-72
2021/06/16 03:50:43;;;;;;;11.52;6.78;;;13.00;96.10;;;;;;5033050;28;20087;-72
2021/06/16 03:53:11;;;;;;;11.88;6.72;;;13.00;96.20;;;;;;5033751;28;20068;-72
2021/06/16 03:55:41;;;;;;;12.80;6.72;;;13.00;96.30;;;;;;5033572;28;20116;-72
2021/06/16 03:58:09;;;;;;;11.90;6.30;;;13.00;96.30;;;;;;5037518;28;20077;-72
2021/06/16 04:00:36;;;;;;;9.70;6.95;;;12.90;96.40;;;;;;5037162;28;20033;-72
2021/06/16 04:03:02;;;;;;;11.50;7.72;;;13.00;96.60;;;;;;5037676;28;20065;-72
2021/06/16 04:05:27;;;;;;;13.05;6.78;;;13.10;96.30;;;;;;5037724;28;20076;-72
2021/06/16 04:07:54;;;;;;;13.25;6.75;;;13.10;96.30;;;;;;5037115;28;20041;-72
2021/06/16 04:10:22;;;;;;;10.95;6.30;;;13.10;96.40;;;;;;5036664;28;20041;-72
2021/06/16 04:12:48;;;;;;;16.25;7.18;;;13.10;96.50;;;;;;5037373;28;20042;-72
2021/06/16 04:15:17;;;;;;;16.48;7.57;;;13.10;96.50;;;;;;5037165;28;20500;-73
2021/06/16 04:17:43;;;;;;;12.50;7.45;;;13.10;96.40;;;;;;5036984;28;20041;-73
2021/06/16 04:20:09;;;;;;;11.00;7.20;;;13.20;96.40;;;;;;5036757;28;20044;-72
2021/06/16 04:22:35;;;;;;;15.00;7.85;;;13.20;96.40;;;;;;5037121;28;20037;-72
2021/06/16 04:25:01;;;;;;;11.55;7.13;;;13.20;96.40;;;;;;5036249;28;20045;-72
2021/06/16 04:27:26;;;;;;;16.95;6.97;;;13.30;96.30;;;;;;5036918;28;20038;-72
2021/06/16 04:29:52;;;;;;;11.80;7.45;;;13.40;96.20;;;;;;5036826;28;20397;-72
2021/06/16 04:32:18;;;;;;;16.48;8.10;;;13.40;96.20;;;;;;5036600;28;20045;-72
2021/06/16 04:34:43;;;;;;;12.43;8.05;;;13.50;96.00;;;;;;5035342;28;20037;-73
2021/06/16 04:37:09;;;;;;;15.07;6.72;;;13.40;96.10;;;;;;5036723;28;20037;-73
2021/06/16 04:39:36;;;;;;;14.65;7.63;;;13.60;95.90;;;;;;5036682;28;20366;-73
2021/06/16 04:42:02;;;;;;;13.05;7.40;;;13.70;96.20;;;;;;5036428;28;20045;-73
2021/06/16 04:44:28;;;;;;;14.52;7.25;;;13.80;95.80;;;;;;5035406;28;20041;-73
2021/06/16 04:46:55;;;;;;;12.10;7.28;;;14.00;95.40;;;;;;5036634;28;20397;-72
2021/06/16 04:49:22;;;;;;;14.77;8.15;;;14.10;95.20;;;;;;5036212;28;20065;-73
2021/06/16 04:51:48;;;;;;;15.23;7.88;;;14.30;94.90;;;;;;5035041;28;20038;-74
2021/06/16 04:54:14;;;;;;;9.18;7.35;;;14.50;94.70;;;;;;5036369;28;20087;-73
2021/06/16 04:56:40;;;;;;;16.25;6.85;;;14.70;94.20;;;;;;5036279;28;20037;-73
2021/06/16 04:59:07;;;;;;;16.52;7.22;;;14.90;93.90;;;;;;5036499;28;20045;-72
2021/06/16 05:01:34;;;;;;;14.07;7.15;;;15.10;93.70;;;;;;5036146;28;20575;-72
2021/06/16 05:04:00;;;;;;;12.13;6.82;;;15.30;93.50;;;;;;5036196;28;20034;-73
2021/06/16 05:06:26;;;;;;;11.57;7.22;;;15.50;93.20;;;;;;5036109;28;20045;-72
2021/06/16 05:08:51;;;;;;;13.57;7.50;;;15.70;92.90;;;;;;5036010;28;20040;-73
2021/06/16 05:11:17;;;;;;;12.63;6.78;;;15.90;92.80;;;;;;5036424;28;20034;-73
2021/06/16 05:13:43;;;;;;;8.95;6.75;;;16.20;92.60;;;;;;5036376;28;20486;-73
2021/06/16 05:16:09;;;;;;;14.38;6.80;;;16.40;92.30;;;;;;5036841;28;20087;-73
2021/06/16 05:18:34;;;;;;;11.70;6.70;;;16.60;92.00;;;;;;5035816;28;20044;-73
2021/06/16 05:21:01;;;;;;;12.82;6.50;;;16.90;91.60;;;;;;5035874;28;20396;-73
2021/06/16 05:23:30;;;;;;;10.25;6.63;;;16.90;91.10;;;;;;5035238;28;20504;-73
2021/06/16 05:25:59;;;;;;;11.82;6.68;;;17.10;90.80;;;;;;5036249;28;20113;-73
2021/06/16 05:28:24;;;;;;;10.43;6.38;;;17.40;90.70;;;;;;5036138;28;20418;-73
2021/06/16 05:30:50;;;;;;;9.40;5.90;;;17.40;90.40;;;;;;5035246;28;20072;-73
2021/06/16 05:33:16;;;;;;;9.80;5.68;;;17.70;90.30;;;;;;5036450;28;20052;-73
2021/06/16 05:35:42;;;;;;;12.68;6.45;;;17.90;89.90;;;;;;5035590;28;20061;-73
2021/06/16 05:38:10;;;;;;;9.63;5.20;;;18.00;89.70;;;;;;5035786;28;20445;-72
2021/06/16 05:40:36;;;;;;;15.38;7.93;;;18.10;88.80;;;;;;5035646;28;20061;-71
2021/06/16 05:43:02;;;;;;;12.38;6.13;;;18.50;88.40;;;;;;5036030;28;20164;-72
2021/06/16 05:45:28;;;;;;;10.93;5.20;;;18.60;87.50;;;;;;5035760;28;20034;-72
2021/06/16 05:47:54;;;;;;;8.10;4.82;;;18.90;87.20;;;;;;5035180;28;20052;-72
2021/06/16 05:50:21;;;;;;;16.45;6.22;;;19.10;86.80;;;;;;5034823;28;20052;-72
2021/06/16 05:52:47;;;;;;;13.07;5.80;;;19.20;86.20;;;;;;5034260;28;20033;-71
2021/06/16 05:55:13;;;;;;;9.77;5.78;;;19.40;85.60;;;;;;5035545;28;20092;-71
2021/06/16 05:57:39;;;;;;;9.30;4.97;;;19.40;85.00;;;;;;5035141;28;20041;-70
2021/06/16 06:00:08;;;;;;;12.77;6.20;;;19.60;83.90;;;;;;5034572;28;20113;-72
2021/06/16 06:02:34;;;;;;;10.10;4.68;;;19.70;83.40;;;;;;5033466;28;20069;-73
2021/06/16 06:05:00;;;;;;;9.02;4.80;;;20.00;83.30;;;;;;5034996;28;20072;-72
2021/06/16 06:07:25;;;;;;;11.50;4.60;;;20.10;82.40;;;;;;5035324;28;20041;-72
2021/06/16 06:09:51;;;;;;;6.88;5.15;;;20.10;82.60;;;;;;5034906;28;20095;-72
2021/06/16 06:12:17;;;;;;;10.55;4.25;;;20.10;82.10;;;;;;5034298;28;20041;-72
2021/06/16 06:14:43;;;;;;;12.38;4.50;;;20.20;81.10;;;;;;5034650;28;20033;-72
2021/06/16 06:17:09;;;;;;;9.02;4.68;;;20.10;81.00;;;;;;5034909;28;20045;-72
2021/06/16 06:19:35;;;;;;;6.95;4.47;;;20.30;81.20;;;;;;5034055;28;20386;-72
2021/06/16 06:22:01;;;;;;;9.43;4.25;;;20.50;80.60;;;;;;5034861;28;20045;-72
2021/06/16 06:24:27;;;;;;;10.63;5.32;;;20.80;81.00;;;;;;5034485;28;20044;-72
2021/06/16 06:26:53;;;;;;;13.32;4.50;;;21.00;80.60;;;;;;5034966;28;20041;-72
2021/06/16 06:29:19;;;;;;;8.98;4.88;;;21.10;80.40;;;;;;5034417;28;20067;-73
2021/06/16 06:31:44;;;;;;;11.93;5.35;;;21.00;79.50;;;;;;5034256;28;20381;-73
2021/06/16 06:34:10;;;;;;;7.60;4.50;;;21.20;79.10;;;;;;5034931;28;20048;-73
2021/06/16 06:36:36;;;;;;;9.00;4.63;;;21.10;78.30;;;;;;5034749;28;20104;-71
2021/06/16 06:39:03;;;;;;;8.82;4.65;;;21.30;78.60;;;;;;5033959;28;20033;-73
2021/06/16 06:41:29;;;;;;;11.45;5.53;;;21.50;78.60;;;;;;5034636;28;20069;-73
2021/06/16 06:43:55;;;;;;;12.57;5.05;;;21.80;78.50;;;;;;5034377;28;20069;-73
2021/06/16 06:46:20;;;;;;;9.48;5.00;;;21.90;77.50;;;;;;5033825;28;20037;-73
2021/06/16 06:48:47;;;;;;;11.05;4.97;;;21.90;77.10;;;;;;5033129;28;20096;-72
2021/06/16 06:51:13;;;;;;;8.27;4.88;;;21.90;76.50;;;;;;5034404;28;20474;-72
2021/06/16 06:53:38;;;;;;;7.53;4.80;;;22.10;76.90;;;;;;5033291;28;20041;-73
2021/06/16 06:56:04;;;;;;;8.65;4.30;;;22.30;77.00;;;;;;5034602;28;20037;-73
2021/06/16 06:58:30;;;;;;;8.30;4.90;;;22.40;75.70;;;;;;5033847;28;20470;-73
2021/06/16 07:00:57;;;;;;;11.55;5.63;;;22.60;75.30;;;;;;5033848;28;20041;-73
2021/06/16 07:03:23;;;;;;;9.73;4.38;;;22.60;75.30;;;;;;5034363;28;20116;-73
2021/06/16 07:05:49;;;;;;;9.68;5.15;;;22.90;76.10;;;;;;5033883;28;20042;-72
2021/06/16 07:08:14;;;;;;;10.55;5.00;;;22.90;74.50;;;;;;5034170;28;20034;-73
2021/06/16 07:10:40;;;;;;;9.10;4.60;;;23.00;75.30;;;;;;5034001;28;20087;-73
2021/06/16 07:13:06;;;;;;;8.95;4.63;;;23.20;75.30;;;;;;5034073;28;20115;-73
2021/06/16 07:15:32;;;;;;;12.43;5.00;;;23.40;75.00;;;;;;5033559;28;20119;-72
2021/06/16 07:17:58;;;;;;;10.00;4.78;;;23.40;74.50;;;;;;5033737;28;20148;-73
2021/06/16 07:20:24;;;;;;;7.82;4.38;;;23.00;74.50;;;;;;5033038;28;20470;-72
2021/06/16 07:22:50;;;;;;;9.95;5.20;;;22.90;74.30;;;;;;5033448;28;20041;-73
2021/06/16 07:25:18;;;;;;;7.65;3.90;;;22.70;74.90;;;;;;5034118;28;20381;-73
2021/06/16 07:27:45;;;;;;;7.55;4.60;;;22.70;75.00;;;;;;5033603;28;20042;-73
2021/06/16 07:30:12;;;;;;;8.27;4.68;;;22.70;75.40;;;;;;5032625;28;20053;-73
2021/06/16 07:32:39;;;;;;;9.95;5.20;;;23.00;74.80;;;;;;5033157;28;20495;-74
2021/06/16 07:35:06;;;;;;;7.00;4.38;;;23.10;74.20;;;;;;5033543;28;20114;-73
2021/06/16 07:37:32;;;;;;;9.27;4.07;;;23.30;74.50;;;;;;5033525;28;20037;-73
2021/06/16 07:39:57;;;;;;;8.85;4.72;;;23.70;73.40;;;;;;5032998;28;20037;-73
2021/06/16 07:42:23;;;;;;;11.07;4.80;;;24.00;73.10;;;;;;5034025;28;20037;-73
2021/06/16 07:44:50;;;;;;;9.05;4.40;;;23.80;72.00;;;;;;5033466;28;20060;-74
2021/06/16 07:47:16;;;;;;;11.68;4.53;;;24.20;72.00;;;;;;5033777;28;20041;-72
2021/06/16 07:49:42;;;;;;;8.45;4.45;;;24.30;72.20;;;;;;5032897;28;20041;-73
2021/06/16 07:52:08;;;;;;;7.13;4.53;;;24.40;71.30;;;;;;5033191;28;20379;-73
2021/06/16 07:54:34;;;;;;;8.32;4.38;;;24.60;71.20;;;;;;5033284;28;20512;-73
2021/06/16 07:56:59;;;;;;;7.25;4.50;;;24.80;70.20;;;;;;5033409;28;20041;-73
2021/06/16 07:59:25;;;;;;;7.38;4.32;;;24.80;70.30;;;;;;5033165;28;20374;-73
2021/06/16 08:01:51;;;;;;;10.65;4.13;;;24.90;69.70;;;;;;5033561;28;20116;-73
2021/06/16 08:04:19;;;;;;;11.00;4.57;;;25.20;70.20;;;;;;5033513;28;20124;-74
2021/06/16 08:06:45;;;;;;;9.32;4.15;;;25.20;68.80;;;;;;5033372;28;20069;-74
2021/06/16 08:09:10;;;;;;;8.82;4.07;;;25.30;69.30;;;;;;5033157;28;20072;-73
2021/06/16 08:11:36;;;;;;;7.85;4.40;;;25.60;68.60;;;;;;5033652;28;20044;-73
2021/06/16 08:14:02;;;;;;;7.40;4.13;;;25.70;68.50;;;;;;5033082;28;20042;-73
2021/06/16 08:16:27;;;;;;;10.63;3.72;;;25.80;67.50;;;;;;5033199;28;20048;-73
2021/06/16 08:18:53;;;;;;;9.52;3.15;;;25.90;66.90;;;;;;5032711;28;20044;-74
2021/06/16 08:21:19;;;;;;;8.13;3.60;;;26.30;67.00;;;;;;5033498;28;20378;-74
2021/06/16 08:23:46;;;;;;;9.73;3.80;;;26.10;65.60;;;;;;5033134;28;20110;-74
2021/06/16 08:26:12;;;;;;;9.52;3.15;;;26.20;65.70;;;;;;5033150;28;20041;-73
2021/06/16 08:28:38;;;;;;;13.23;3.70;;;26.30;65.70;;;;;;5032520;28;20496;-73
2021/06/16 08:31:04;;;;;;;8.45;3.45;;;26.10;64.80;;;;;;5032950;28;20038;-74
2021/06/16 08:33:31;;;;;;;7.38;3.03;;;26.40;66.30;;;;;;5033393;28;20033;-74
2021/06/16 08:35:56;;;;;;;11.98;3.05;;;26.20;66.80;;;;;;5033038;28;20053;-74
2021/06/16 08:38:22;;;;;;;7.97;3.17;;;26.20;67.40;;;;;;5033387;28;20152;-74
2021/06/16 08:40:48;;;;;;;10.63;3.60;;;26.30;65.50;;;;;;5032731;28;20041;-73
2021/06/16 08:43:14;;;;;;;6.65;2.97;;;26.10;64.70;;;;;;5035431;28;20045;-73
2021/06/16 08:45:41;;;;;;;6.43;3.00;;;25.90;63.80;;;;;;5036485;28;20111;-73
2021/06/16 08:48:08;;;;;;;7.68;2.50;;;26.00;64.50;;;;;;5036967;28;20477;-73
2021/06/16 08:50:35;;;;;;;7.22;2.22;;;25.80;62.70;;;;;;5036118;28;20053;-73
2021/06/16 08:53:01;;;;;;;6.05;2.70;;;25.60;62.60;;;;;;5036442;28;20042;-74
2021/06/16 08:55:28;;;;;;;4.68;2.80;;;25.80;62.40;;;;;;5036291;28;20091;-73
2021/06/16 08:57:53;;;;;;;7.93;3.00;;;26.00;63.00;;;;;;5036134;28;20048;-73
2021/06/16 09:00:21;;;;;;;6.00;2.50;;;26.30;63.50;;;;;;5036120;28;20029;-73
2021/06/16 09:02:47;;;;;;;5.40;2.72;;;26.20;62.10;;;;;;5036078;28;20121;-74
2021/06/16 09:05:13;;;;;;;7.65;2.72;;;26.50;61.80;;;;;;5036097;28;20065;-73
2021/06/16 09:07:41;;;;;;;6.70;2.50;;;26.80;61.30;;;;;;5036306;28;20112;-74
2021/06/16 09:10:11;;;;;;;7.75;2.50;;;26.50;59.60;;;;;;5035848;28;20042;-74
2021/06/16 09:12:43;;;;;;;6.25;2.65;;;26.80;60.70;;;;;;5036084;28;20387;-74
2021/06/16 09:15:14;;;;;;;7.75;2.65;;;27.00;60.40;;;;;;5035102;28;20037;-74
2021/06/16 09:17:41;;;;;;;7.32;3.05;;;26.90;60.40;;;;;;5035995;28;20049;-74
2021/06/16 09:20:08;;;;;;;5.45;2.28;;;27.10;61.60;;;;;;5035496;28;20429;-74
2021/06/16 09:22:36;;;;;;;7.70;2.42;;;26.90;58.60;;;;;;5035882;28;20052;-74
2021/06/16 09:25:09;;;;;;;9.15;2.75;;;26.80;57.90;;;;;;5034910;28;20421;-74
2021/06/16 09:27:50;;;;;;;6.15;2.80;;;26.70;58.10;;;;;;5035623;28;20033;-73
2021/06/16 09:30:18;;;;;;;5.78;2.63;;;26.80;59.10;;;;;;5036254;28;20045;-74
2021/06/16 09:32:46;;;;;;;9.05;2.83;;;26.80;58.70;;;;;;5035844;28;20445;-74
2021/06/16 09:35:27;;;;;;;7.57;3.03;;;26.70;58.70;;;;;;5037671;28;20075;-73
2021/06/16 09:37:53;;;;;;;7.28;2.53;;;27.00;58.80;;;;;;5038713;28;20052;-73
2021/06/16 09:40:50;;;;;;;7.82;3.05;;;27.40;59.90;;;;;;5035982;28;20040;-73
2021/06/16 09:43:18;;;;;;;6.93;2.80;;;27.20;59.90;;;;;;5031901;28;20052;-73
2021/06/16 09:45:45;;;;;;;6.43;2.13;;;26.90;57.80;;;;;;5036673;28;20048;-73
2021/06/16 09:48:28;;;;;;;9.23;2.63;;;26.80;58.00;;;;;;5035607;28;20041;-73
2021/06/16 09:51:10;;;;;;;5.35;2.42;;;27.00;57.80;;;;;;5035749;28;20045;-73
2021/06/16 09:53:55;;;;;;;3.83;2.30;;;27.10;57.60;;;;;;5035034;28;20049;-73
2021/06/16 09:56:21;;;;;;;6.07;2.05;;;27.20;58.60;;;;;;5035424;28;20049;-73
2021/06/16 09:58:47;;;;;;;6.95;1.60;;;27.10;57.00;;;;;;5034702;28;20041;-75
2021/06/16 10:01:14;;;;;;;4.85;1.67;;;27.20;55.80;;;;;;5035512;28;20113;-73
2021/06/16 10:03:41;;;;;;;8.88;2.50;;;27.40;54.50;;;;;;5035106;28;20057;-73
2021/06/16 10:06:13;;;;;;;6.20;2.10;;;27.30;53.60;;;;;;5035171;28;20046;-73
2021/06/16 10:08:44;;;;;;;;;;;27.50;55.30;;;;;;5035548;28;20121;-73
2021/06/16 10:11:19;;;;;;;4.78;1.92;;;27.60;54.90;;;;;;5035199;28;19956;-73
2021/06/16 10:13:46;;;;;;;6.68;2.42;;;27.40;53.50;;;;;;5034973;28;20034;-73
2021/06/16 10:16:12;;;;;;;4.80;1.90;;;27.40;53.10;;;;;;5034973;28;20041;-73
2021/06/16 10:18:43;;;;;;;6.10;3.00;;;27.20;53.80;;;;;;5034420;28;20094;-73
2021/06/16 10:21:12;;;;;;;4.25;2.55;;;27.20;53.50;;;;;;5033420;28;20037;-73
2021/06/16 10:23:38;;;;;;;2.85;1.80;;;27.30;53.90;;;;;;5034916;28;20042;-74
2021/06/16 10:26:08;;;;;;;4.35;2.30;;;27.30;53.90;;;;;;5034595;28;20087;-72
2021/06/16 10:28:53;;;;;;;6.40;1.98;;;27.10;54.10;;;;;;5034785;28;20064;-73
2021/06/16 10:31:19;;;;;;;7.47;2.78;;;27.10;50.90;;;;;;5034277;28;20967;-73
2021/06/16 10:33:55;;;;;;;5.95;2.10;;;27.20;51.50;;;;;;5034342;28;20037;-73
2021/06/16 10:36:21;;;;;;;5.30;2.40;;;27.20;52.80;;;;;;5034434;28;20194;-73
2021/06/16 10:38:59;;;;;;;5.78;1.80;;;27.10;52.10;;;;;;5034123;28;20122;-73
2021/06/16 10:41:48;;;;;;;6.57;1.95;;;27.10;52.90;;;;;;5032854;28;20049;-73
2021/06/16 10:44:16;;;;;;;4.68;2.22;;;26.90;49.90;;;;;;5034423;28;20104;-73
2021/06/16 10:47:06;;;;;;;6.45;2.58;;;26.70;50.40;;;;;;5034589;28;20470;-73
2021/06/16 10:49:41;;;;;;;4.07;1.92;;;26.70;50.30;;;;;;5033969;28;20449;-73
2021/06/16 10:52:13;;;;;;;4.70;2.33;;;26.80;53.40;;;;;;5030430;28;20120;-73
2021/06/16 10:54:39;;;;;;;6.80;2.17;;;26.80;53.10;;;;;;5021850;28;20033;-73
2021/06/16 10:57:11;;;;;;;5.55;2.17;;;26.80;52.70;;;;;;5034275;28;20044;-73
2021/06/16 10:59:43;;;;;;;5.70;1.80;;;26.70;54.30;;;;;;5033425;28;20041;-73
2021/06/16 11:02:10;;;;;;;6.70;1.77;;;26.80;53.00;;;;;;5034367;28;20390;-73
2021/06/16 11:04:37;;;;;;;3.70;1.55;;;26.70;52.70;;;;;;5033572;28;20074;-72
2021/06/16 11:07:24;;;;;;;4.88;2.08;;;26.70;50.80;;;;;;5031254;28;20046;-73
2021/06/16 11:09:55;;;;;;;3.50;1.80;;;26.90;50.40;;;;;;5033239;28;20164;-74
2021/06/16 11:12:37;;;;;;;4.78;1.60;;;26.80;50.80;;;;;;5034202;28;20069;-73
2021/06/16 11:15:05;;;;;;;5.43;2.00;;;26.80;50.10;;;;;;5034438;28;20552;-74
2021/06/16 11:17:33;;;;;;;4.45;1.88;;;26.90;51.70;;;;;;5016296;28;20072;-75
2021/06/16 11:20:05;;;;;;;7.25;1.98;;;26.80;52.70;;;;;;5033399;28;20038;-73
2021/06/16 11:22:33;;;;;;;5.20;1.60;;;27.00;52.20;;;;;;5033862;28;20069;-73
2021/06/16 11:25:08;;;;;;;5.10;1.90;;;27.00;53.20;;;;;;5033640;28;20117;-73
2021/06/16 11:27:53;;;;;;;5.22;1.63;;;27.20;54.80;;;;;;5033676;28;20570;-74
2021/06/16 11:30:30;;;;;;;5.47;2.10;;;27.30;52.60;;;;;;5033468;28;20048;-75
2021/06/16 11:33:15;;;;;;;5.85;1.63;;;27.10;49.20;;;;;;5033496;28;20168;-72
2021/06/16 11:35:44;;;;;;;6.80;1.92;;;27.20;51.10;;;;;;5033992;28;20378;-72
2021/06/16 11:38:35;;;;;;;5.65;1.40;;;27.10;50.30;;;;;;5033874;28;20049;-72
2021/06/16 11:41:17;;;;;;;2.70;1.27;;;27.10;47.90;;;;;;5033364;28;20060;-72
2021/06/16 11:43:45;;;;;;;3.67;1.67;;;27.10;47.20;;;;;;5033327;28;20103;-73
2021/06/16 11:46:29;;;;;;;4.80;1.58;;;27.20;48.60;;;;;;5033551;28;20478;-70
2021/06/16 11:49:07;;;;;;;6.20;2.15;;;27.20;46.90;;;;;;5032815;28;20041;-71
2021/06/16 11:51:44;;;;;;;4.75;1.52;;;27.20;48.10;;;;;;5033787;28;20490;-72
2021/06/16 11:54:20;;;;;;;4.35;1.88;;;27.10;48.20;;;;;;5033881;28;20037;-71
2021/06/16 11:56:48;;;;;;;6.93;1.77;;;26.90;49.20;;;;;;5033635;28;20069;-71
2021/06/16 11:59:14;;;;;;;4.53;1.60;;;27.00;51.40;;;;;;5032695;28;20509;-70
2021/06/16 12:01:39;;;;;;;3.30;1.52;;;27.10;50.60;;;;;;5033288;28;20041;-70
2021/06/16 12:04:11;;;;;;;4.05;1.65;;;27.10;50.10;;;;;;5033117;28;20049;-71
2021/06/16 12:06:37;;;;;;;5.50;1.63;;;27.20;51.20;;;;;;5033636;28;20045;-71
2021/06/16 12:09:03;;;;;;;4.93;1.73;;;27.10;50.60;;;;;;5033279;28;20564;-71
2021/06/16 12:11:33;;;;;;;9.02;2.17;;;27.00;49.20;;;;;;5033123;28;20091;-71
2021/06/16 12:14:07;;;;;;;6.38;2.35;;;26.80;49.20;;;;;;5031801;28;20424;-71
2021/06/16 12:16:37;;;;;;;4.90;1.45;;;26.90;50.50;;;;;;5033393;28;20478;-71
2021/06/16 12:19:06;;;;;;;6.53;1.80;;;26.90;49.90;;;;;;5037161;28;20041;-72
2021/06/16 12:21:32;;;;;;;4.78;1.33;;;27.00;50.40;;;;;;5036361;28;20044;-71
2021/06/16 12:23:58;;;;;;;4.70;1.50;;;27.00;49.50;;;;;;5036908;28;20124;-71
2021/06/16 12:26:25;;;;;;;4.20;1.80;;;27.00;53.40;;;;;;5037245;28;20044;-71
2021/06/16 12:28:54;;;;;;;4.18;1.42;;;27.00;49.40;;;;;;5036475;28;20048;-71
2021/06/16 12:31:27;;;;;;;3.58;1.50;;;27.10;49.60;;;;;;5036501;28;20405;-71
2021/06/16 12:36:26;;;;;;;5.68;1.80;;;27.30;51.10;;;;;;5036694;28;20072;-71
2021/06/16 12:39:28;;;;;;;6.20;3.28;;;27.30;50.00;;;;;;5036177;28;20060;-71
2021/06/16 12:41:56;;;;;;;4.22;1.60;;;27.20;49.10;;;;;;5015260;28;20037;-71
2021/06/16 12:44:24;;;;;;;5.03;1.80;;;27.00;49.10;;;;;;5027927;28;20045;-72
2021/06/16 12:46:51;;;;;;;4.05;1.30;;;27.10;49.60;;;;;;5036429;28;20045;-70
2021/06/16 12:49:17;;;;;;;3.22;1.77;;;27.00;50.80;;;;;;5036015;28;20520;-71
2021/06/16 12:52:03;;;;;;;6.07;1.67;;;26.90;50.10;;;;;;5036683;28;20107;-70
2021/06/16 12:54:36;;;;;;;5.53;1.65;;;27.00;49.60;;;;;;5035146;28;20044;-70